Time,TemperatureF,DewpointF,PressureIn,WindDirection,WindDirectionDegrees,WindSpeedMPH,WindSpeedGustMPH,Humidity,HourlyPrecipIn,Conditions,Clouds,dailyrainin,SoftwareType,DateUTC
2013-06-03 00:03:00,64.0,63.0,29.09,North,0,0.0,0.0,98,0.00,,,0.91,,2013-06-03 04:03:00,
2013-06-03 00:13:00,64.0,63.0,29.09,North,0,0.0,0.0,98,0.00,,,0.91,,2013-06-03 04:13:00,
2013-06-03 00:23:00,64.0,63.0,29.06,North,0,0.0,0.0,98,0.00,,,0.91,,2013-06-03 04:23:00,
2013-06-03 00:33:00,64.0,63.0,29.09,North,0,0.0,0.0,98,0.00,,,0.91,,2013-06-03 04:33:00,
2013-06-03 00:42:00,64.0,63.0,29.09,North,0,0.0,0.0,98,0.00,,,0.91,,2013-06-03 04:42:00,
2013-06-03 00:53:00,64.0,63.0,29.09,North,0,0.0,0.0,98,0.00,,,0.91,,2013-06-03 04:53:00,
2013-06-03 01:02:00,64.0,63.0,29.09,North,0,0.0,0.0,98,0.00,,,0.91,,2013-06-03 05:02:00,
2013-06-03 01:12:00,64.0,63.0,29.09,North,0,0.0,0.0,98,0.00,,,0.91,,2013-06-03 05:12:00,
2013-06-03 01:22:00,63.0,62.0,29.09,North,0,0.0,0.0,98,0.00,,,0.91,,2013-06-03 05:22:00,
2013-06-03 01:32:00,63.0,62.0,29.09,North,0,0.0,0.0,98,0.00,,,0.91,,2013-06-03 05:32:00,
2013-06-03 01:43:00,63.0,62.0,29.09,North,0,0.0,0.0,98,0.00,,,0.91,,2013-06-03 05:43:00,
2013-06-03 01:52:00,63.0,62.0,29.09,North,0,0.0,0.0,98,0.00,,,0.91,,2013-06-03 05:52:00,
2013-06-03 02:02:00,62.0,61.0,29.09,North,0,0.0,0.0,98,0.00,,,0.91,,2013-06-03 06:02:00,
2013-06-03 02:12:00,62.0,61.0,29.09,North,0,0.0,0.0,98,0.00,,,0.91,,2013-06-03 06:12:00,
2013-06-03 02:22:00,62.0,61.0,29.09,North,0,0.0,0.0,98,0.00,,,0.91,,2013-06-03 06:22:00,
2013-06-03 02:32:00,62.0,61.0,29.09,North,0,0.0,0.0,98,0.00,,,0.91,,2013-06-03 06:32:00,
2013-06-03 02:42:00,62.0,61.0,29.09,North,0,0.0,0.0,98,0.00,,,0.91,,2013-06-03 06:42:00,
2013-06-03 02:53:00,62.0,61.0,29.09,North,0,0.0,0.0,98,0.00,,,0.91,,2013-06-03 06:53:00,
2013-06-03 03:02:00,62.0,61.0,29.09,North,0,0.0,0.0,98,0.00,,,0.91,,2013-06-03 07:02:00,
2013-06-03 03:12:00,62.0,61.0,29.09,North,0,0.0,0.0,98,0.00,,,0.91,,2013-06-03 07:12:00,
2013-06-03 03:22:00,62.0,61.0,29.09,North,0,0.0,0.0,98,0.00,,,0.91,,2013-06-03 07:22:00,
2013-06-03 03:32:00,62.0,61.0,29.09,North,0,0.0,0.0,98,0.00,,,0.91,,2013-06-03 07:32:00,
2013-06-03 03:42:00,62.0,61.0,29.09,North,0,0.0,0.0,98,0.00,,,0.91,,2013-06-03 07:42:00,
2013-06-03 03:50:00,62.0,61.0,29.06,North,0,0.0,0.0,98,0.00,,,0.91,,2013-06-03 07:50:00,
2013-06-03 03:52:00,62.0,61.0,29.09,North,0,0.0,0.0,98,0.00,,,0.91,,2013-06-03 07:52:00,
2013-06-03 04:02:00,62.0,61.0,29.09,North,0,0.0,0.0,98,0.00,,,0.91,,2013-06-03 08:02:00,
2013-06-03 04:12:00,62.0,61.0,29.09,North,0,0.0,0.0,98,0.00,,,0.91,,2013-06-03 08:12:00,
2013-06-03 04:22:00,62.0,61.0,29.06,North,0,0.0,0.0,98,0.00,,,0.91,,2013-06-03 08:22:00,
2013-06-03 04:32:00,62.0,61.0,29.06,North,0,0.0,0.0,98,0.00,,,0.91,,2013-06-03 08:32:00,
2013-06-03 04:42:00,62.0,61.0,29.06,North,0,0.0,0.0,98,0.00,,,0.91,,2013-06-03 08:42:00,
2013-06-03 05:02:00,62.0,61.0,29.06,North,0,0.0,0.0,98,0.00,,,0.91,,2013-06-03 09:02:00,
2013-06-03 05:12:00,62.0,61.0,29.06,North,0,0.0,0.0,98,0.00,,,0.91,,2013-06-03 09:12:00,
2013-06-03 05:22:00,62.0,61.0,29.06,North,0,0.0,0.0,98,0.00,,,0.91,,2013-06-03 09:22:00,
2013-06-03 05:33:00,62.0,61.0,29.06,North,0,0.0,0.0,98,0.00,,,0.91,,2013-06-03 09:33:00,
2013-06-03 05:43:00,62.0,61.0,29.06,North,0,0.0,0.0,98,0.00,,,0.91,,2013-06-03 09:43:00,
2013-06-03 05:53:00,62.0,61.0,29.09,North,0,0.0,0.0,98,0.00,,,0.91,,2013-06-03 09:53:00,
2013-06-03 06:03:00,63.0,62.0,29.09,North,0,0.0,0.0,98,0.00,,,0.91,,2013-06-03 10:03:00,
2013-06-03 06:13:00,63.0,62.0,29.09,North,0,0.0,0.0,98,0.00,,,0.91,,2013-06-03 10:13:00,
2013-06-03 06:22:00,63.0,62.0,29.09,North,0,0.0,0.0,98,0.00,,,0.83,,2013-06-03 10:22:00,
2013-06-03 06:33:00,63.0,62.0,29.09,North,0,0.0,0.0,98,0.00,,,0.83,,2013-06-03 10:33:00,
2013-06-03 06:42:00,63.0,62.0,29.09,North,0,0.0,0.0,98,0.00,,,0.83,,2013-06-03 10:42:00,
2013-06-03 06:52:00,63.0,62.0,29.09,North,0,0.0,0.0,98,0.00,,,0.83,,2013-06-03 10:52:00,
2013-06-03 07:22:00,63.0,62.0,29.09,North,0,0.0,0.0,98,0.00,,,0.79,,2013-06-03 11:22:00,
2013-06-03 07:32:00,64.0,63.0,29.12,North,0,0.0,0.0,98,0.00,,,0.79,,2013-06-03 11:32:00,
2013-06-03 07:42:00,64.0,63.0,29.12,North,0,0.0,0.0,98,0.00,,,0.79,,2013-06-03 11:42:00,
2013-06-03 07:52:00,64.0,63.0,29.09,North,0,0.0,0.0,98,0.00,,,0.75,,2013-06-03 11:52:00,
2013-06-03 08:02:00,64.0,63.0,29.12,North,0,0.0,0.0,98,0.00,,,0.75,,2013-06-03 12:02:00,
2013-06-03 08:12:00,64.0,63.0,29.12,North,0,0.0,0.0,98,0.00,,,0.75,,2013-06-03 12:12:00,
2013-06-03 08:22:00,64.0,63.0,29.12,North,0,0.0,0.0,98,0.00,,,0.75,,2013-06-03 12:22:00,
2013-06-03 08:32:00,64.0,63.0,29.12,North,0,0.0,0.0,98,0.00,,,0.75,,2013-06-03 12:32:00,
2013-06-03 08:42:00,64.0,63.0,29.12,North,0,0.0,0.0,98,0.00,,,0.75,,2013-06-03 12:42:00,
2013-06-03 08:52:00,66.0,65.0,29.12,North,0,0.0,0.0,98,0.00,,,0.67,,2013-06-03 12:52:00,
2013-06-03 09:02:00,70.0,69.0,29.12,North,0,0.0,0.0,97,0.00,,,0.51,,2013-06-03 13:02:00,
2013-06-03 09:12:00,70.0,69.0,29.12,North,0,0.0,0.0,97,0.00,,,0.51,,2013-06-03 13:12:00,
2013-06-03 09:22:00,71.0,67.0,29.12,North,0,0.0,0.0,88,0.00,,,0.47,,2013-06-03 13:22:00,
2013-06-03 09:32:00,71.0,67.0,29.12,North,0,0.0,0.0,87,0.00,,,0.47,,2013-06-03 13:32:00,
2013-06-03 09:43:00,71.0,67.0,29.12,North,0,0.0,0.0,87,0.00,,,0.47,,2013-06-03 13:43:00,
2013-06-03 09:52:00,73.0,64.0,29.12,North,0,0.0,0.0,74,0.00,,,0.47,,2013-06-03 13:52:00,
2013-06-03 10:02:00,73.0,64.0,29.12,North,0,0.0,0.0,74,0.00,,,0.47,,2013-06-03 14:02:00,
2013-06-03 10:13:00,73.0,64.0,29.12,North,0,0.0,0.0,74,0.00,,,0.47,,2013-06-03 14:13:00,
2013-06-03 10:22:00,73.0,64.0,29.12,North,0,0.0,0.0,74,0.00,,,0.47,,2013-06-03 14:22:00,
2013-06-03 10:32:00,75.0,66.0,29.15,North,0,0.0,0.0,73,0.00,,,0.47,,2013-06-03 14:32:00,
2013-06-03 10:42:00,75.0,66.0,29.15,North,0,0.0,0.0,73,0.00,,,0.47,,2013-06-03 14:42:00,
2013-06-03 10:52:00,74.0,64.0,29.15,North,0,0.0,0.0,71,0.00,,,0.47,,2013-06-03 14:52:00,
2013-06-03 11:02:00,76.0,65.0,29.15,North,0,0.0,0.0,69,0.00,,,0.35,,2013-06-03 15:02:00,
2013-06-03 11:12:00,76.0,65.0,29.15,North,0,0.0,0.0,69,0.00,,,0.35,,2013-06-03 15:12:00,
2013-06-03 11:22:00,76.0,65.0,29.15,North,0,0.0,0.0,69,0.00,,,0.35,,2013-06-03 15:22:00,
2013-06-03 11:33:00,79.0,66.0,29.15,North,0,0.0,4.0,64,0.00,,,0.12,,2013-06-03 15:33:00,
2013-06-03 11:43:00,79.0,66.0,29.15,North,0,0.0,4.0,64,0.00,,,0.12,,2013-06-03 15:43:00,
2013-06-03 11:53:00,80.0,67.0,29.15,ENE,76,4.0,5.0,64,0.00,,,0.12,,2013-06-03 15:53:00,
2013-06-03 12:03:00,81.0,66.0,29.15,ENE,77,4.0,5.0,61,0.00,,,0.12,,2013-06-03 16:03:00,
2013-06-03 12:13:00,81.0,66.0,29.15,ENE,77,4.0,5.0,61,0.00,,,0.12,,2013-06-03 16:13:00,
2013-06-03 12:23:00,81.0,66.0,29.15,ENE,77,4.0,5.0,61,0.00,,,0.12,,2013-06-03 16:23:00,
2013-06-03 12:33:00,81.0,66.0,29.15,ENE,70,4.0,7.0,61,0.00,,,0.12,,2013-06-03 16:33:00,
2013-06-03 12:42:00,82.0,61.0,29.15,NNW,348,4.0,7.0,50,0.00,,,0.12,,2013-06-03 16:42:00,
2013-06-03 12:53:00,82.0,61.0,29.15,NNW,348,4.0,7.0,50,0.00,,,0.12,,2013-06-03 16:53:00,
2013-06-03 13:02:00,82.0,61.0,29.15,NNW,348,4.0,7.0,50,0.00,,,0.12,,2013-06-03 17:02:00,
2013-06-03 13:12:00,82.0,61.0,29.15,NNW,348,4.0,7.0,50,0.00,,,0.12,,2013-06-03 17:12:00,
2013-06-03 13:22:00,84.0,64.0,29.12,North,0,0.0,7.0,52,0.00,,,0.12,,2013-06-03 17:22:00,
2013-06-03 13:33:00,84.0,64.0,29.12,North,0,0.0,7.0,52,0.00,,,0.12,,2013-06-03 17:33:00,
2013-06-03 13:42:00,84.0,64.0,29.12,North,0,0.0,7.0,52,0.00,,,0.12,,2013-06-03 17:42:00,
2013-06-03 13:52:00,84.0,64.0,29.12,North,0,0.0,7.0,52,0.00,,,0.12,,2013-06-03 17:52:00,
2013-06-03 14:03:00,83.0,59.0,29.12,ENE,63,3.0,6.0,44,0.00,,,0.12,,2013-06-03 18:03:00,
2013-06-03 14:12:00,83.0,59.0,29.12,ENE,63,3.0,6.0,44,0.00,,,0.12,,2013-06-03 18:12:00,
2013-06-03 14:22:00,81.0,61.0,29.12,North,0,0.0,4.0,51,0.00,,,0.12,,2013-06-03 18:22:00,
2013-06-03 14:32:00,81.0,61.0,29.12,North,0,0.0,4.0,51,0.00,,,0.12,,2013-06-03 18:32:00,
2013-06-03 14:43:00,81.0,61.0,29.12,North,0,0.0,4.0,51,0.00,,,0.12,,2013-06-03 18:43:00,
2013-06-03 14:53:00,81.0,59.0,29.09,North,0,0.0,7.0,47,0.00,,,0.12,,2013-06-03 18:53:00,
2013-06-03 15:03:00,82.0,61.0,29.09,ENE,60,4.0,6.0,49,0.00,,,0.12,,2013-06-03 19:03:00,
2013-06-03 15:12:00,82.0,61.0,29.09,ENE,60,4.0,6.0,49,0.00,,,0.12,,2013-06-03 19:12:00,
2013-06-03 15:23:00,84.0,58.0,29.09,ENE,76,4.0,9.0,42,0.00,,,0.12,,2013-06-03 19:23:00,
2013-06-03 15:33:00,82.0,59.0,29.09,North,0,0.0,4.0,46,0.00,,,0.12,,2013-06-03 19:33:00,
2013-06-03 15:42:00,82.0,59.0,29.09,North,0,0.0,4.0,46,0.00,,,0.12,,2013-06-03 19:42:00,
2013-06-03 15:52:00,81.0,59.0,29.09,North,0,0.0,7.0,48,0.00,,,0.12,,2013-06-03 19:52:00,
2013-06-03 16:02:00,81.0,59.0,29.09,North,0,0.0,7.0,48,0.00,,,0.12,,2013-06-03 20:02:00,
2013-06-03 16:12:00,81.0,59.0,29.09,North,0,0.0,7.0,48,0.00,,,0.12,,2013-06-03 20:12:00,
2013-06-03 16:22:00,81.0,57.0,29.06,North,0,0.0,5.0,44,0.00,,,0.12,,2013-06-03 20:22:00,
2013-06-03 16:33:00,79.0,55.0,29.06,North,0,0.0,4.0,44,0.00,,,0.12,,2013-06-03 20:33:00,
2013-06-03 16:43:00,79.0,55.0,29.06,North,0,0.0,4.0,44,0.00,,,0.12,,2013-06-03 20:43:00,
2013-06-03 16:52:00,81.0,59.0,29.06,ENE,76,6.0,7.0,48,0.00,,,0.12,,2013-06-03 20:52:00,
2013-06-03 17:02:00,81.0,59.0,29.06,ENE,76,6.0,7.0,48,0.00,,,0.12,,2013-06-03 21:02:00,
2013-06-03 17:12:00,81.0,59.0,29.06,ENE,76,6.0,7.0,48,0.00,,,0.12,,2013-06-03 21:12:00,
2013-06-03 17:22:00,80.0,57.0,29.06,North,0,0.0,4.0,45,0.00,,,0.12,,2013-06-03 21:22:00,
2013-06-03 17:33:00,80.0,57.0,29.06,North,0,0.0,4.0,45,0.00,,,0.12,,2013-06-03 21:33:00,
2013-06-03 17:43:00,80.0,57.0,29.06,North,0,0.0,4.0,45,0.00,,,0.12,,2013-06-03 21:43:00,
2013-06-03 17:53:00,78.0,56.0,29.06,North,0,0.0,0.0,47,0.00,,,0.12,,2013-06-03 21:53:00,
2013-06-03 18:03:00,78.0,54.0,29.06,North,0,0.0,4.0,44,0.00,,,0.12,,2013-06-03 22:03:00,
2013-06-03 18:13:00,78.0,54.0,29.06,North,0,0.0,4.0,44,0.00,,,0.12,,2013-06-03 22:13:00,
2013-06-03 18:22:00,77.0,53.0,29.06,North,0,0.0,4.0,44,0.00,,,0.12,,2013-06-03 22:22:00,
2013-06-03 18:33:00,77.0,53.0,29.06,North,0,0.0,4.0,43,0.00,,,0.12,,2013-06-03 22:33:00,
2013-06-03 18:42:00,77.0,53.0,29.06,North,0,0.0,4.0,43,0.00,,,0.12,,2013-06-03 22:42:00,
2013-06-03 18:52:00,77.0,53.0,29.06,North,0,0.0,4.0,43,0.00,,,0.12,,2013-06-03 22:52:00,
2013-06-03 19:02:00,76.0,54.0,29.06,North,0,0.0,4.0,46,0.00,,,0.08,,2013-06-03 23:02:00,
2013-06-03 19:12:00,76.0,54.0,29.06,North,0,0.0,4.0,46,0.00,,,0.08,,2013-06-03 23:12:00,
2013-06-03 19:23:00,76.0,54.0,29.06,North,0,0.0,0.0,47,0.00,,,0.08,,2013-06-03 23:23:00,
2013-06-03 19:32:00,75.0,56.0,29.06,North,0,0.0,3.0,52,0.00,,,0.08,,2013-06-03 23:32:00,
2013-06-03 19:42:00,75.0,56.0,29.06,North,0,0.0,3.0,52,0.00,,,0.08,,2013-06-03 23:42:00,
2013-06-03 19:52:00,74.0,54.0,29.06,North,0,0.0,4.0,50,0.00,,,0.08,,2013-06-03 23:52:00,
2013-06-03 20:02:00,74.0,56.0,29.06,North,0,0.0,0.0,53,0.00,,,0.08,,2013-06-04 00:02:00,
2013-06-03 20:12:00,74.0,56.0,29.06,North,0,0.0,0.0,53,0.00,,,0.08,,2013-06-04 00:12:00,
2013-06-03 20:22:00,74.0,56.0,29.06,North,0,0.0,0.0,53,0.00,,,0.08,,2013-06-04 00:22:00,
2013-06-03 20:32:00,71.0,58.0,29.09,North,0,0.0,0.0,64,0.00,,,0.04,,2013-06-04 00:32:00,
2013-06-03 20:42:00,71.0,58.0,29.09,North,0,0.0,0.0,64,0.00,,,0.04,,2013-06-04 00:42:00,
2013-06-03 20:52:00,69.0,59.0,29.09,North,0,0.0,0.0,71,0.00,,,0.04,,2013-06-04 00:52:00,
2013-06-03 21:02:00,68.0,59.0,29.09,North,0,0.0,0.0,74,0.00,,,0.04,,2013-06-04 01:02:00,
2013-06-03 21:12:00,68.0,59.0,29.09,North,0,0.0,0.0,74,0.00,,,0.04,,2013-06-04 01:12:00,
2013-06-03 21:22:00,67.0,60.0,29.09,North,0,0.0,0.0,77,0.00,,,0.04,,2013-06-04 01:22:00,
2013-06-03 21:32:00,67.0,60.0,29.09,North,0,0.0,0.0,77,0.00,,,0.04,,2013-06-04 01:32:00,
2013-06-03 21:42:00,67.0,60.0,29.09,North,0,0.0,0.0,77,0.00,,,0.04,,2013-06-04 01:42:00,
2013-06-03 21:52:00,67.0,60.0,29.09,North,0,0.0,0.0,77,0.00,,,0.04,,2013-06-04 01:52:00,
2013-06-03 22:22:00,64.0,60.0,29.12,North,0,0.0,0.0,88,0.00,,,0.00,,2013-06-04 02:22:00,
2013-06-03 22:32:00,63.0,60.0,29.12,North,0,0.0,0.0,90,0.00,,,0.00,,2013-06-04 02:32:00,
2013-06-03 22:42:00,63.0,60.0,29.12,North,0,0.0,0.0,90,0.00,,,0.00,,2013-06-04 02:42:00,
2013-06-03 22:52:00,62.0,60.0,29.12,North,0,0.0,0.0,93,0.00,,,0.00,,2013-06-04 02:52:00,
2013-06-03 23:02:00,62.0,60.0,29.15,North,0,0.0,0.0,94,0.00,,,0.00,,2013-06-04 03:02:00,
2013-06-03 23:12:00,62.0,60.0,29.15,North,0,0.0,0.0,94,0.00,,,0.00,,2013-06-04 03:12:00,
2013-06-03 23:22:00,62.0,60.0,29.15,North,0,0.0,0.0,94,0.00,,,0.00,,2013-06-04 03:22:00,
2013-06-03 23:33:00,62.0,61.0,29.15,North,0,0.0,0.0,96,0.00,,,0.00,,2013-06-04 03:33:00,
2013-06-03 23:43:00,62.0,61.0,29.15,North,0,0.0,0.0,96,0.00,,,0.00,,2013-06-04 03:43:00,
2013-06-03 23:53:00,61.0,60.0,29.15,North,0,0.0,0.0,96,0.00,,,0.00,,2013-06-04 03:53:00,